Tarrant West's Hourly Summary for Tuesday, May 8, 2018
Hour Temp
(f)
RH
(%)
Solar Rad.
(MJ/m2)
Rainfall
(in)
Wind
(mph)
5/8/2018 12:00 AM 71 61 19.95 0 0
5/8/2018 1:00 AM 71 58 19.95 0 0
5/8/2018 2:00 AM 70 59 19.95 0 0
5/8/2018 3:00 AM 68 62 19.95 0 0
5/8/2018 4:00 AM 66 65 19.95 0 0
5/8/2018 5:00 AM 65 69 19.95 0 0
5/8/2018 6:00 AM 63 72 19.95 0 0
5/8/2018 7:00 AM 63 73 19.95 0 0
5/8/2018 8:00 AM 69 63 19.95 0 0
5/8/2018 9:00 AM 75 53 19.95 0 0
5/8/2018 10:00 AM 77 51 19.95 0 0
5/8/2018 11:00 AM 80 48 19.95 0 0
5/8/2018 12:00 PM 82 43 19.95 0 0
5/8/2018 1:00 PM 84 41 19.95 0 0
5/8/2018 2:00 PM 86 37 19.95 0 0
5/8/2018 3:00 PM 86 34 19.95 0 0
5/8/2018 4:00 PM 86 34 19.95 0 0
5/8/2018 5:00 PM 86 34 19.95 0 0
5/8/2018 6:00 PM 85 35 19.95 0 0
5/8/2018 7:00 PM 82 39 19.95 0 0
5/8/2018 8:00 PM 78 45 19.95 0 0
5/8/2018 9:00 PM 75 48 19.95 0 0
5/8/2018 10:00 PM 74 52 19.95 0 0
5/8/2018 11:00 PM 73 55 19.95 0 0
Data Summary 75 51 478.80 0.00 0.00